Time;durP1;ratioP1;P1;durP2;ratioP2;P2;SDS_P1;SDS_P2;PMS_P1;PMS_P2;Temp;Humidity;BMP_temperature;BMP_pressure;BME280_temperature;BME280_humidity;BME280_pressure;Samples;Min_cycle;Max_cycle;Signal;HPM_P1;HPM_P2
2021/09/23 00:02:16;;;;;;;2.20;2.10;;;9.30;90.90;;;;;;5008793;28;20185;-76
2021/09/23 00:04:43;;;;;;;2.33;2.23;;;9.30;90.90;;;;;;5008014;28;20180;-76
2021/09/23 00:07:08;;;;;;;2.10;2.00;;;9.40;90.90;;;;;;5010088;28;20231;-76
2021/09/23 00:09:34;;;;;;;1.90;1.90;;;9.40;90.90;;;;;;5007888;28;20185;-76
2021/09/23 00:12:00;;;;;;;1.93;1.83;;;9.40;91.10;;;;;;5012032;28;20220;-76
2021/09/23 00:14:26;;;;;;;2.13;2.03;;;9.40;91.10;;;;;;5011024;28;20181;-76
2021/09/23 00:16:51;;;;;;;1.57;1.57;;;9.40;91.10;;;;;;5014964;28;20180;-75
2021/09/23 00:19:18;;;;;;;1.70;1.67;;;9.40;91.20;;;;;;5009754;28;20255;-76
2021/09/23 00:21:44;;;;;;;2.13;2.03;;;9.40;91.40;;;;;;5014805;28;20185;-75
2021/09/23 00:24:10;;;;;;;1.70;1.70;;;9.40;91.30;;;;;;5016794;28;20185;-75
2021/09/23 00:26:36;;;;;;;1.53;1.53;;;9.40;91.40;;;;;;5016459;28;20268;-75
2021/09/23 00:29:03;;;;;;;1.70;1.60;;;9.40;91.30;;;;;;5016765;28;20287;-75
2021/09/23 00:31:31;;;;;;;1.53;1.47;;;9.40;91.30;;;;;;5009622;28;21019;-75
2021/09/23 00:33:56;;;;;;;1.43;1.33;;;9.40;91.30;;;;;;5009491;28;20181;-75
2021/09/23 00:36:22;;;;;;;1.10;1.10;;;9.30;91.50;;;;;;5013385;28;20197;-76
2021/09/23 00:38:48;;;;;;;1.13;1.13;;;9.30;91.50;;;;;;5012571;28;20184;-76
2021/09/23 00:41:15;;;;;;;0.80;0.80;;;9.30;91.70;;;;;;5018216;28;20181;-76
2021/09/23 00:43:41;;;;;;;0.97;0.97;;;9.30;91.90;;;;;;5022394;28;20986;-75
2021/09/23 00:46:06;;;;;;;1.80;1.00;;;9.30;92.10;;;;;;5019826;28;20176;-76
2021/09/23 00:48:32;;;;;;;1.00;1.00;;;9.30;91.90;;;;;;5014006;28;20242;-75
2021/09/23 00:51:01;;;;;;;0.83;0.83;;;9.30;91.90;;;;;;5017392;28;21979;-76
2021/09/23 00:53:27;;;;;;;1.03;1.03;;;9.40;91.80;;;;;;5011734;28;20216;-75
2021/09/23 00:55:58;;;;;;;1.10;1.10;;;9.30;91.90;;;;;;5018742;28;20173;-75
2021/09/23 00:58:24;;;;;;;1.50;1.40;;;9.30;92.00;;;;;;5011077;28;20177;-75
2021/09/23 01:00:50;;;;;;;0.77;0.77;;;9.40;92.00;;;;;;5017228;28;20217;-74
2021/09/23 01:03:16;;;;;;;0.70;0.70;;;9.40;92.00;;;;;;5014634;28;20247;-75
2021/09/23 01:05:42;;;;;;;0.93;0.93;;;9.40;92.00;;;;;;5019316;28;20212;-75
2021/09/23 01:08:08;;;;;;;0.70;0.70;;;9.40;91.90;;;;;;5017082;28;20276;-76
2021/09/23 01:10:33;;;;;;;0.90;0.90;;;9.40;92.00;;;;;;5020182;28;20180;-76
2021/09/23 01:13:01;;;;;;;1.00;1.00;;;9.40;91.90;;;;;;5013914;28;20239;-76
2021/09/23 01:15:27;;;;;;;0.90;0.90;;;9.40;91.80;;;;;;5013337;28;20188;-76
2021/09/23 01:17:53;;;;;;;0.93;0.93;;;9.50;91.70;;;;;;5016687;28;20273;-75
2021/09/23 01:20:19;;;;;;;0.90;0.90;;;9.50;91.70;;;;;;5010099;28;20732;-75
2021/09/23 01:22:45;;;;;;;1.20;0.60;;;9.50;91.70;;;;;;5016535;28;20579;-75
2021/09/23 01:25:15;;;;;;;0.60;0.60;;;9.50;91.90;;;;;;5014324;28;20260;-75
2021/09/23 01:27:41;;;;;;;0.87;0.87;;;9.50;91.90;;;;;;5014731;28;20184;-76
2021/09/23 01:30:07;;;;;;;0.60;0.60;;;9.50;92.10;;;;;;5013636;28;20565;-75
2021/09/23 01:32:32;;;;;;;0.73;0.73;;;9.40;92.10;;;;;;5014912;28;21030;-75
2021/09/23 01:34:58;;;;;;;0.60;0.60;;;9.40;92.30;;;;;;5023728;28;20216;-76
2021/09/23 01:37:24;;;;;;;0.70;0.70;;;9.40;92.40;;;;;;5006530;28;20180;-74
2021/09/23 01:39:49;;;;;;;0.97;0.97;;;9.40;92.50;;;;;;5014066;28;20671;-75
2021/09/23 01:42:15;;;;;;;0.50;0.50;;;9.40;92.50;;;;;;5010626;28;20272;-76
2021/09/23 01:44:41;;;;;;;0.63;0.63;;;9.40;92.60;;;;;;5013179;28;20186;-74
2021/09/23 01:47:06;;;;;;;0.50;0.50;;;9.40;92.70;;;;;;5011732;28;20264;-74
2021/09/23 01:49:32;;;;;;;0.60;0.60;;;9.40;92.80;;;;;;5011438;28;20192;-75
2021/09/23 01:51:58;;;;;;;0.40;0.40;;;9.40;92.80;;;;;;5014851;28;22021;-74
2021/09/23 01:54:24;;;;;;;0.83;0.83;;;9.40;92.80;;;;;;5014539;28;20181;-74
2021/09/23 01:56:53;;;;;;;0.60;0.60;;;9.40;92.80;;;;;;5009096;28;20232;-75
2021/09/23 01:59:20;;;;;;;0.50;0.50;;;9.40;92.90;;;;;;5012886;28;20262;-74
2021/09/23 02:01:46;;;;;;;0.60;0.60;;;9.40;92.80;;;;;;5011234;28;20184;-74
2021/09/23 02:04:12;;;;;;;0.67;0.67;;;9.40;92.80;;;;;;5010972;28;20181;-75
2021/09/23 02:06:37;;;;;;;0.70;0.70;;;9.40;92.90;;;;;;5016428;28;20189;-75
2021/09/23 02:09:03;;;;;;;0.60;0.60;;;9.40;92.80;;;;;;5014253;28;20185;-73
2021/09/23 02:11:29;;;;;;;0.60;0.60;;;9.40;92.80;;;;;;5013693;28;20232;-72
2021/09/23 02:13:55;;;;;;;0.70;0.70;;;9.30;93.00;;;;;;5013307;28;20176;-74
2021/09/23 02:16:20;;;;;;;0.53;0.53;;;9.30;93.10;;;;;;5012875;28;20194;-74
2021/09/23 02:18:46;;;;;;;0.77;0.77;;;9.30;93.00;;;;;;5011946;28;20189;-74
2021/09/23 02:21:12;;;;;;;0.70;0.70;;;9.30;93.00;;;;;;5016825;28;20183;-74
2021/09/23 02:23:38;;;;;;;1.00;1.00;;;9.40;93.10;;;;;;5015447;28;20203;-79
2021/09/23 02:26:04;;;;;;;0.60;0.60;;;9.40;93.00;;;;;;5015533;28;20176;-79
2021/09/23 02:28:32;;;;;;;0.70;0.70;;;9.40;93.00;;;;;;5015809;28;20267;-79
2021/09/23 02:30:57;;;;;;;0.87;0.87;;;9.40;93.00;;;;;;5011086;28;20180;-79
2021/09/23 02:33:23;;;;;;;0.77;0.77;;;9.50;93.00;;;;;;5010379;28;20274;-75
2021/09/23 02:35:49;;;;;;;0.70;0.67;;;9.40;93.00;;;;;;5012214;28;20592;-75
2021/09/23 02:38:14;;;;;;;0.80;0.80;;;9.50;93.00;;;;;;5019808;28;20583;-75
2021/09/23 02:40:40;;;;;;;0.80;0.80;;;9.50;92.90;;;;;;5014891;28;20185;-75
2021/09/23 02:43:06;;;;;;;0.70;0.68;;;9.50;92.90;;;;;;5008902;28;20582;-74
2021/09/23 02:45:32;;;;;;;0.93;0.70;;;9.50;92.90;;;;;;5009217;28;20180;-74
2021/09/23 02:47:57;;;;;;;0.60;0.60;;;9.50;92.90;;;;;;5018694;28;20184;-74
2021/09/23 02:50:23;;;;;;;0.40;0.40;;;9.50;92.90;;;;;;5014196;28;20832;-74
2021/09/23 02:52:49;;;;;;;1.03;0.50;;;9.50;92.70;;;;;;5017085;28;20225;-74
2021/09/23 02:55:14;;;;;;;0.40;0.40;;;9.60;92.60;;;;;;5013022;28;20246;-75
2021/09/23 02:57:40;;;;;;;0.40;0.40;;;9.60;92.50;;;;;;5014772;28;20519;-74
2021/09/23 03:00:06;;;;;;;0.50;0.50;;;9.60;92.60;;;;;;5014617;28;20673;-73
2021/09/23 03:02:32;;;;;;;0.40;0.40;;;9.60;92.50;;;;;;5008928;28;20184;-74
2021/09/23 03:04:58;;;;;;;1.50;0.60;;;9.60;92.50;;;;;;5009760;28;20189;-75
2021/09/23 03:07:23;;;;;;;0.70;0.70;;;9.60;92.50;;;;;;5018444;28;20206;-74
2021/09/23 03:09:49;;;;;;;0.50;0.50;;;9.60;92.50;;;;;;5008849;28;20671;-74
2021/09/23 03:12:15;;;;;;;0.70;0.67;;;9.60;92.50;;;;;;5015732;28;20231;-75
2021/09/23 03:14:40;;;;;;;0.60;0.60;;;9.60;92.50;;;;;;5012654;28;20212;-74
2021/09/23 03:17:06;;;;;;;0.70;0.70;;;9.60;92.50;;;;;;5008233;28;20185;-75
2021/09/23 03:19:33;;;;;;;0.73;0.70;;;9.60;92.50;;;;;;5010737;28;20922;-74
2021/09/23 03:21:58;;;;;;;0.70;0.70;;;9.60;92.40;;;;;;5014677;28;20192;-74
2021/09/23 03:24:24;;;;;;;0.67;0.67;;;9.60;92.40;;;;;;5015754;28;20181;-75
2021/09/23 03:26:50;;;;;;;1.30;0.93;;;9.60;92.50;;;;;;5011148;28;20178;-75
2021/09/23 03:29:15;;;;;;;0.90;0.90;;;9.60;92.40;;;;;;5009926;28;20239;-75
2021/09/23 03:31:41;;;;;;;0.87;0.87;;;9.60;92.50;;;;;;5017200;28;20189;-75
2021/09/23 03:34:07;;;;;;;0.90;0.90;;;9.60;92.60;;;;;;5014653;28;20188;-75
2021/09/23 03:36:33;;;;;;;0.80;0.80;;;9.50;92.80;;;;;;5015418;28;20177;-74
2021/09/23 03:38:59;;;;;;;0.70;0.70;;;9.60;92.60;;;;;;5010848;28;20188;-75
2021/09/23 03:41:25;;;;;;;0.80;0.80;;;9.50;92.70;;;;;;5012478;28;20181;-75
2021/09/23 03:43:51;;;;;;;0.90;0.90;;;9.50;92.80;;;;;;5012973;28;20632;-73
2021/09/23 03:46:18;;;;;;;0.60;0.60;;;9.50;92.90;;;;;;5019972;28;20293;-73
2021/09/23 03:48:46;;;;;;;0.73;0.73;;;9.50;93.00;;;;;;5013775;28;20176;-74
2021/09/23 03:51:15;;;;;;;0.80;0.70;;;9.50;93.00;;;;;;5011096;28;20971;-73
2021/09/23 03:53:42;;;;;;;0.80;0.80;;;9.50;93.10;;;;;;5010938;28;20224;-74
2021/09/23 03:56:12;;;;;;;0.70;0.70;;;9.40;93.10;;;;;;5018861;28;20180;-75
2021/09/23 03:58:40;;;;;;;0.83;0.83;;;9.50;93.20;;;;;;5011305;28;20189;-75
2021/09/23 04:01:05;;;;;;;0.97;0.97;;;9.40;93.30;;;;;;5017088;28;20189;-74
2021/09/23 04:03:31;;;;;;;1.10;1.10;;;9.40;93.20;;;;;;5019110;28;20236;-74
2021/09/23 04:05:57;;;;;;;1.00;1.00;;;9.40;93.30;;;;;;5017726;28;20575;-74
2021/09/23 04:08:23;;;;;;;0.83;0.83;;;9.50;93.20;;;;;;5021529;28;20181;-74
2021/09/23 04:10:48;;;;;;;0.80;0.80;;;9.40;93.40;;;;;;5017251;28;20189;-75
2021/09/23 04:13:14;;;;;;;0.93;0.93;;;9.40;93.50;;;;;;5016564;28;20331;-75
2021/09/23 04:15:42;;;;;;;0.67;0.67;;;9.40;93.50;;;;;;5013275;28;20200;-75
2021/09/23 04:18:08;;;;;;;0.80;0.80;;;9.40;93.60;;;;;;5021379;28;20208;-75
2021/09/23 04:20:34;;;;;;;1.07;1.07;;;9.40;93.50;;;;;;5017859;28;20323;-76
2021/09/23 04:23:00;;;;;;;1.20;1.20;;;9.50;93.50;;;;;;5017813;28;20263;-76
2021/09/23 04:25:25;;;;;;;1.30;1.20;;;9.50;93.50;;;;;;5017043;28;20685;-76
2021/09/23 04:27:51;;;;;;;0.87;0.87;;;9.50;93.60;;;;;;5016898;28;20185;-76
2021/09/23 04:30:17;;;;;;;0.97;0.97;;;9.50;93.50;;;;;;5019649;28;20177;-75
2021/09/23 04:32:43;;;;;;;1.03;0.90;;;9.50;93.40;;;;;;5016051;28;20217;-76
2021/09/23 04:35:09;;;;;;;0.90;0.90;;;9.50;93.50;;;;;;5017559;28;20631;-76
2021/09/23 04:37:35;;;;;;;0.93;0.93;;;9.50;93.40;;;;;;5014754;28;20752;-76
2021/09/23 04:40:00;;;;;;;1.03;1.03;;;9.50;93.30;;;;;;5010498;28;20682;-76
2021/09/23 04:42:26;;;;;;;1.20;1.07;;;9.50;93.40;;;;;;5018065;28;20185;-75
2021/09/23 04:44:52;;;;;;;1.20;1.13;;;9.50;93.40;;;;;;5013616;28;20642;-77
2021/09/23 04:47:17;;;;;;;1.50;1.00;;;9.50;93.40;;;;;;5010209;28;20188;-76
2021/09/23 04:49:44;;;;;;;1.60;1.50;;;9.50;93.20;;;;;;5009690;28;20588;-74
2021/09/23 04:52:10;;;;;;;1.00;1.00;;;9.50;93.10;;;;;;5014087;28;20205;-74
2021/09/23 04:54:36;;;;;;;1.00;1.00;;;9.50;93.00;;;;;;5015133;28;20184;-74
2021/09/23 04:57:02;;;;;;;1.33;1.33;;;9.60;92.80;;;;;;5015283;28;20184;-74
2021/09/23 04:59:28;;;;;;;1.23;1.23;;;9.60;92.60;;;;;;5014571;28;20204;-74
2021/09/23 05:01:53;;;;;;;1.13;1.13;;;9.60;92.60;;;;;;5004355;28;20677;-74
2021/09/23 05:04:19;;;;;;;1.23;1.13;;;9.60;92.40;;;;;;5010358;28;20192;-75
2021/09/23 05:06:45;;;;;;;1.63;1.53;;;9.60;92.20;;;;;;5011844;28;20587;-74
2021/09/23 05:09:11;;;;;;;1.40;1.40;;;9.70;92.30;;;;;;5008149;28;20188;-75
2021/09/23 05:11:37;;;;;;;1.30;1.30;;;9.70;92.00;;;;;;5013349;28;20203;-75
2021/09/23 05:14:03;;;;;;;1.70;1.60;;;9.70;91.90;;;;;;5019170;28;20184;-77
2021/09/23 05:16:30;;;;;;;1.47;1.40;;;9.70;92.00;;;;;;5009647;28;20188;-75
2021/09/23 05:18:58;;;;;;;2.50;1.33;;;9.70;92.00;;;;;;5013086;28;20181;-74
2021/09/23 05:21:24;;;;;;;1.70;1.60;;;9.70;91.90;;;;;;5020201;28;20177;-76
2021/09/23 05:23:49;;;;;;;2.33;2.23;;;9.70;91.90;;;;;;5016420;28;20261;-75
2021/09/23 05:26:15;;;;;;;1.87;1.77;;;9.80;92.00;;;;;;5012166;28;20236;-75
2021/09/23 05:28:41;;;;;;;1.60;1.60;;;9.80;91.80;;;;;;5010133;28;20193;-75
2021/09/23 05:31:07;;;;;;;1.60;1.60;;;9.80;91.70;;;;;;5012407;28;20184;-75
2021/09/23 05:33:33;;;;;;;2.27;2.07;;;9.80;91.70;;;;;;5011832;28;20219;-75
2021/09/23 05:35:59;;;;;;;1.27;1.27;;;9.80;91.40;;;;;;5009777;28;20189;-74
2021/09/23 05:38:25;;;;;;;1.90;1.80;;;9.80;91.70;;;;;;5011634;28;20188;-74
2021/09/23 05:40:51;;;;;;;1.30;1.30;;;9.80;91.90;;;;;;5009782;28;20747;-74
2021/09/23 05:43:16;;;;;;;1.10;1.10;;;9.80;91.70;;;;;;5006866;28;20193;-77
2021/09/23 05:45:42;;;;;;;1.87;1.73;;;9.80;91.80;;;;;;5012093;28;20748;-76
2021/09/23 05:48:08;;;;;;;1.43;1.43;;;9.80;91.70;;;;;;5010815;28;20976;-77
2021/09/23 05:50:33;;;;;;;3.13;2.33;;;9.80;91.40;;;;;;5010714;28;20185;-77
2021/09/23 05:52:59;;;;;;;2.10;2.00;;;9.90;91.40;;;;;;5011471;28;20319;-76
2021/09/23 05:55:25;;;;;;;4.75;2.42;;;10.00;91.30;;;;;;5010139;28;20172;-76
2021/09/23 05:57:51;;;;;;;2.40;2.30;;;10.00;91.00;;;;;;5010301;28;20734;-76
2021/09/23 06:00:18;;;;;;;1.97;1.90;;;10.00;90.70;;;;;;5011304;28;20303;-77
2021/09/23 06:02:45;;;;;;;2.10;2.00;;;10.10;90.80;;;;;;5014969;28;20188;-77
2021/09/23 06:05:13;;;;;;;2.40;2.20;;;10.10;90.30;;;;;;5012537;28;20231;-77
2021/09/23 06:07:40;;;;;;;2.33;2.17;;;10.20;90.20;;;;;;5004817;28;20192;-77
2021/09/23 06:10:08;;;;;;;1.90;1.80;;;10.20;90.20;;;;;;5010833;28;20264;-77
2021/09/23 06:12:34;;;;;;;2.13;2.10;;;10.20;90.20;;;;;;5010188;28;20483;-77
2021/09/23 06:15:00;;;;;;;1.40;1.40;;;10.20;89.80;;;;;;5011488;28;20188;-77
2021/09/23 06:17:26;;;;;;;2.28;2.17;;;10.30;89.70;;;;;;5012832;28;20256;-76
2021/09/23 06:19:52;;;;;;;1.70;1.70;;;10.30;89.60;;;;;;5010031;28;20188;-77
2021/09/23 06:22:17;;;;;;;1.95;1.85;;;10.40;89.30;;;;;;5011911;28;20212;-78
2021/09/23 06:24:43;;;;;;;2.40;2.20;;;10.50;89.40;;;;;;5004768;28;20220;-77
2021/09/23 06:27:09;;;;;;;1.88;1.77;;;10.50;89.10;;;;;;5009074;28;20189;-76
2021/09/23 06:29:35;;;;;;;2.35;2.15;;;10.50;88.80;;;;;;5009897;28;20188;-77
2021/09/23 06:32:01;;;;;;;2.47;2.28;;;10.50;88.60;;;;;;5006478;28;20216;-76
2021/09/23 06:34:27;;;;;;;2.40;2.30;;;10.60;88.60;;;;;;5012304;28;20761;-73
2021/09/23 06:36:53;;;;;;;2.55;2.35;;;10.60;88.40;;;;;;5010352;28;20191;-75
2021/09/23 06:39:18;;;;;;;2.30;2.20;;;10.60;88.20;;;;;;5006026;28;20185;-76
2021/09/23 06:41:44;;;;;;;2.47;2.38;;;10.70;88.20;;;;;;5009173;28;20188;-79
2021/09/23 06:44:10;;;;;;;2.90;2.70;;;10.80;88.10;;;;;;5009811;28;20210;-76
2021/09/23 06:46:36;;;;;;;2.17;2.08;;;10.90;87.60;;;;;;5010397;28;21061;-77
2021/09/23 06:49:03;;;;;;;2.72;2.40;;;10.90;86.70;;;;;;5004111;28;20181;-76
2021/09/23 06:51:29;;;;;;;2.40;2.30;;;11.00;87.00;;;;;;5007188;28;20181;-76
2021/09/23 06:53:56;;;;;;;2.60;2.47;;;11.00;86.70;;;;;;5012190;28;20216;-76
2021/09/23 06:56:22;;;;;;;2.10;2.00;;;11.20;86.10;;;;;;5007743;28;20207;-76
2021/09/23 06:58:48;;;;;;;2.80;2.60;;;11.30;85.40;;;;;;5006180;28;20205;-75
2021/09/23 07:01:13;;;;;;;2.38;2.25;;;11.20;85.00;;;;;;5013815;28;20227;-76
2021/09/23 07:03:39;;;;;;;3.00;2.80;;;11.40;85.30;;;;;;5009084;28;20212;-76
2021/09/23 07:06:05;;;;;;;2.65;2.53;;;11.40;84.80;;;;;;5008106;28;20185;-75
2021/09/23 07:08:31;;;;;;;2.63;2.47;;;11.50;84.30;;;;;;5011316;28;20259;-75
2021/09/23 07:10:56;;;;;;;2.33;2.22;;;11.50;83.60;;;;;;5012311;28;20220;-75
2021/09/23 07:13:22;;;;;;;2.97;2.78;;;11.50;83.30;;;;;;5011958;28;20316;-75
2021/09/23 07:15:48;;;;;;;2.78;2.45;;;11.50;83.40;;;;;;5005578;28;20185;-75
2021/09/23 07:18:14;;;;;;;2.53;2.40;;;11.50;83.20;;;;;;5009193;28;20586;-75
2021/09/23 07:20:40;;;;;;;3.55;3.28;;;11.60;82.80;;;;;;5009905;28;20180;-75
2021/09/23 07:23:05;;;;;;;5.75;3.15;;;11.60;83.20;;;;;;5008797;28;20622;-75
2021/09/23 07:25:33;;;;;;;2.30;2.20;;;11.70;83.20;;;;;;5007114;28;20185;-77
2021/09/23 07:28:00;;;;;;;3.05;2.85;;;11.80;82.20;;;;;;5008705;28;20212;-73
2021/09/23 07:30:26;;;;;;;2.63;2.53;;;11.90;81.50;;;;;;5015738;28;20195;-75
2021/09/23 07:32:51;;;;;;;2.90;2.70;;;12.00;81.50;;;;;;5014474;28;20211;-75
2021/09/23 07:35:18;;;;;;;2.65;2.55;;;12.00;81.40;;;;;;5010961;28;20215;-76
2021/09/23 07:37:44;;;;;;;3.90;3.67;;;12.20;81.90;;;;;;5012193;28;20192;-76
2021/09/23 07:40:11;;;;;;;2.55;2.45;;;12.30;81.50;;;;;;5005732;28;20196;-77
2021/09/23 07:42:38;;;;;;;2.47;2.38;;;12.50;80.70;;;;;;5011235;28;20970;-76
2021/09/23 07:45:04;;;;;;;2.50;2.35;;;12.60;79.20;;;;;;5015173;28;20181;-76
2021/09/23 07:47:30;;;;;;;2.17;2.08;;;12.70;79.30;;;;;;5013902;28;20188;-76
2021/09/23 07:49:56;;;;;;;2.33;2.20;;;12.80;79.30;;;;;;5016567;28;20177;-76
2021/09/23 07:52:21;;;;;;;2.63;2.53;;;13.00;78.50;;;;;;5013147;28;20208;-74
2021/09/23 07:54:48;;;;;;;2.78;2.53;;;13.20;77.70;;;;;;5008908;28;20185;-76
2021/09/23 07:57:14;;;;;;;2.63;2.53;;;13.20;76.60;;;;;;5013338;28;20966;-77
2021/09/23 07:59:40;;;;;;;2.42;2.25;;;13.30;75.70;;;;;;5007671;28;20189;-77
2021/09/23 08:02:07;;;;;;;2.17;2.08;;;13.50;75.40;;;;;;5013994;28;20184;-73
2021/09/23 08:04:32;;;;;;;1.67;1.65;;;13.70;75.10;;;;;;5014589;28;20183;-76
2021/09/23 08:06:58;;;;;;;2.00;1.90;;;13.80;74.60;;;;;;5017576;28;20251;-77
2021/09/23 08:09:24;;;;;;;1.30;1.30;;;13.80;72.90;;;;;;5018932;28;20177;-78
2021/09/23 08:11:50;;;;;;;2.45;1.85;;;13.70;73.50;;;;;;5018527;28;20788;-77
2021/09/23 08:14:16;;;;;;;1.75;1.75;;;13.70;74.10;;;;;;5012542;28;20185;-77
2021/09/23 08:16:43;;;;;;;1.40;1.40;;;;;;;;;;5011702;28;20190;-78
2021/09/23 08:19:09;;;;;;;2.35;2.17;;;;;;;;;;5016308;28;20648;-78
2021/09/23 08:21:35;;;;;;;2.35;2.25;;;13.90;74.00;;;;;;5012894;28;20177;-77
2021/09/23 08:24:00;;;;;;;2.60;2.40;;;13.90;73.10;;;;;;5015756;28;20316;-75
2021/09/23 08:26:27;;;;;;;1.80;1.80;;;14.00;73.70;;;;;;5015335;28;20954;-76
2021/09/23 08:28:54;;;;;;;1.63;1.63;;;14.10;72.60;;;;;;5011974;28;20184;-76
2021/09/23 08:31:21;;;;;;;2.00;1.90;;;14.10;72.20;;;;;;5021035;28;20188;-76
2021/09/23 08:33:48;;;;;;;2.03;1.85;;;14.10;72.50;;;;;;5014817;28;20691;-76
2021/09/23 08:36:14;;;;;;;1.63;1.63;;;14.40;72.60;;;;;;5014470;28;20231;-77
2021/09/23 08:38:40;;;;;;;2.00;1.90;;;14.60;71.10;;;;;;5018013;28;20181;-77
2021/09/23 08:41:06;;;;;;;2.00;1.90;;;14.60;70.60;;;;;;5012472;28;21095;-76
2021/09/23 08:43:32;;;;;;;1.35;1.35;;;14.50;70.00;;;;;;5016110;28;20193;-75
2021/09/23 08:45:58;;;;;;;1.23;1.23;;;14.50;70.30;;;;;;5014513;28;20189;-78
2021/09/23 08:48:24;;;;;;;1.27;1.27;;;14.50;70.40;;;;;;5020412;28;20185;-74
2021/09/23 08:50:50;;;;;;;1.58;1.58;;;14.60;70.60;;;;;;5015740;28;20215;-74
2021/09/23 08:53:16;;;;;;;1.77;1.67;;;14.70;69.80;;;;;;5017131;28;20212;-77
2021/09/23 08:55:43;;;;;;;1.40;1.35;;;14.90;70.70;;;;;;5018482;28;20948;-77
2021/09/23 08:58:10;;;;;;;2.65;1.58;;;15.60;68.80;;;;;;5014230;28;20239;-76
2021/09/23 09:00:57;;;;;;;1.35;1.25;;;16.30;67.10;;;;;;5015577;28;20631;-78
2021/09/23 09:03:25;;;;;;;0.88;0.88;;;16.70;66.50;;;;;;5012779;28;20662;-76
2021/09/23 09:05:53;;;;;;;1.50;1.50;;;16.90;66.90;;;;;;5015367;28;20184;-77
2021/09/23 09:08:21;;;;;;;3.13;1.65;;;17.10;65.30;;;;;;5014554;28;20194;-77
2021/09/23 09:10:47;;;;;;;1.13;1.13;;;17.70;65.80;;;;;;5014360;28;20192;-77
2021/09/23 09:13:13;;;;;;;1.35;1.35;;;18.20;61.90;;;;;;5010688;28;20291;-77
2021/09/23 09:15:42;;;;;;;1.58;1.48;;;18.40;61.80;;;;;;5012633;28;20203;-78
2021/09/23 09:18:22;;;;;;;1.25;1.25;;;18.70;61.30;;;;;;5014796;28;20967;-76
2021/09/23 09:21:12;;;;;;;1.20;1.20;;;19.20;60.40;;;;;;5016069;28;20202;-77
2021/09/23 09:23:41;;;;;;;1.38;1.17;;;19.70;60.70;;;;;;5012364;28;20184;-73
2021/09/23 09:26:08;;;;;;;1.10;1.10;;;20.10;59.00;;;;;;5016598;28;20268;-75
2021/09/23 09:28:50;;;;;;;1.95;1.85;;;20.50;58.30;;;;;;5013032;28;20190;-73
2021/09/23 09:31:16;;;;;;;1.17;1.17;;;20.60;57.40;;;;;;5012461;28;20181;-76
2021/09/23 09:33:45;;;;;;;2.13;2.03;;;21.40;57.20;;;;;;5018367;28;20299;-77
2021/09/23 09:36:24;;;;;;;1.95;1.95;;;21.50;58.20;;;;;;5014437;28;20184;-77
2021/09/23 09:38:51;;;;;;;1.48;1.40;;;21.20;55.60;;;;;;5017485;28;20585;-74
2021/09/23 09:41:26;;;;;;;2.92;1.95;;;21.00;55.40;;;;;;5015133;28;20184;-77
2021/09/23 09:43:57;;;;;;;1.50;1.40;;;21.40;57.80;;;;;;5014045;28;20574;-77
2021/09/23 09:46:29;;;;;;;1.42;1.42;;;21.20;55.80;;;;;;5018523;28;20945;-74
2021/09/23 09:48:56;;;;;;;1.80;1.80;;;21.20;56.00;;;;;;5013834;28;20596;-76
2021/09/23 09:51:43;;;;;;;2.03;2.00;;;21.30;56.50;;;;;;5015716;28;20181;-76
2021/09/23 09:54:11;;;;;;;1.83;1.83;;;21.20;56.00;;;;;;5012624;28;20220;-75
2021/09/23 09:56:42;;;;;;;2.20;2.10;;;21.70;58.20;;;;;;5011897;28;20184;-76
2021/09/23 09:59:12;;;;;;;1.98;1.80;;;22.30;55.90;;;;;;5016986;28;20224;-78
2021/09/23 10:01:41;;;;;;;1.50;1.50;;;22.80;53.50;;;;;;5017929;28;20173;-76
2021/09/23 10:04:07;;;;;;;1.80;1.80;;;22.70;52.80;;;;;;5013482;28;20192;-75
2021/09/23 10:06:33;;;;;;;1.85;1.85;;;22.80;53.20;;;;;;5015006;28;20184;-74
2021/09/23 10:08:59;;;;;;;1.67;1.67;;;23.00;53.50;;;;;;5011529;28;20259;-76
2021/09/23 10:11:25;;;;;;;1.90;1.90;;;23.40;53.80;;;;;;5019523;28;20322;-77
2021/09/23 10:13:52;;;;;;;1.45;1.45;;;23.70;52.70;;;;;;5016900;28;20212;-76
2021/09/23 10:16:19;;;;;;;1.85;1.70;;;24.10;53.50;;;;;;5019152;28;20188;-76
2021/09/23 10:18:48;;;;;;;1.70;1.70;;;24.60;53.40;;;;;;5015510;28;20174;-76
2021/09/23 10:21:15;;;;;;;1.52;1.52;;;24.80;51.10;;;;;;5011910;28;20193;-76
2021/09/23 10:23:41;;;;;;;1.70;1.45;;;24.60;49.40;;;;;;5016303;28;20776;-76
2021/09/23 10:26:14;;;;;;;1.15;1.15;;;24.40;51.40;;;;;;5015451;28;20185;-76
2021/09/23 10:28:45;;;;;;;1.90;1.38;;;24.60;50.00;;;;;;5012750;28;20181;-77
2021/09/23 10:31:19;;;;;;;1.10;1.10;;;24.90;52.30;;;;;;5013133;28;20265;-76
2021/09/23 10:33:46;;;;;;;1.20;1.17;;;25.20;49.20;;;;;;5014582;28;20221;-77
2021/09/23 10:36:13;;;;;;;0.90;0.90;;;25.10;50.40;;;;;;5011490;28;20715;-76
2021/09/23 10:38:41;;;;;;;1.17;1.17;;;25.00;49.50;;;;;;5009769;28;20188;-76
2021/09/23 10:41:07;;;;;;;0.90;0.90;;;24.80;49.20;;;;;;5006038;28;20192;-75
2021/09/23 10:43:33;;;;;;;1.20;1.20;;;24.80;51.40;;;;;;5013524;28;20193;-75
2021/09/23 10:46:00;;;;;;;1.02;1.02;;;25.20;52.40;;;;;;5011578;28;20205;-75
2021/09/23 10:48:28;;;;;;;0.95;0.95;;;;;;;;;;5009280;28;20192;-76
2021/09/23 10:50:55;;;;;;;1.00;1.00;;;25.80;48.00;;;;;;5024460;28;20192;-76
2021/09/23 10:53:21;;;;;;;1.05;1.05;;;;;;;;;;5005914;28;20220;-76
2021/09/23 10:55:46;;;;;;;1.00;1.00;;;25.70;48.00;;;;;;5012548;28;20312;-75
2021/09/23 10:58:19;;;;;;;1.40;1.40;;;25.40;47.70;;;;;;5010915;28;20211;-76
2021/09/23 11:00:46;;;;;;;5.30;1.98;;;24.90;48.90;;;;;;5006459;28;20215;-72
2021/09/23 11:03:12;;;;;;;1.30;1.30;;;24.90;49.60;;;;;;5014038;28;20712;-72
2021/09/23 11:05:41;;;;;;;1.00;1.00;;;25.30;50.30;;;;;;5014159;28;20301;-72
2021/09/23 11:08:12;;;;;;;1.27;1.25;;;25.80;49.00;;;;;;5008193;28;20180;-75
2021/09/23 11:10:43;;;;;;;1.73;1.65;;;26.30;49.50;;;;;;5008771;28;20276;-76
2021/09/23 11:13:11;;;;;;;1.00;1.00;;;26.60;47.60;;;;;;5010285;28;20266;-76
2021/09/23 11:15:39;;;;;;;1.48;1.48;;;26.90;47.00;;;;;;5018389;28;20203;-75
2021/09/23 11:18:07;;;;;;;1.30;1.30;;;27.30;49.30;;;;;;5015837;28;20250;-74
2021/09/23 11:20:33;;;;;;;1.30;1.30;;;27.80;47.30;;;;;;5011634;28;20208;-74
2021/09/23 11:23:08;;;;;;;1.38;1.33;;;28.20;46.20;;;;;;5012744;28;20198;-74
2021/09/23 11:25:39;;;;;;;1.67;1.58;;;28.60;47.10;;;;;;5007593;28;20176;-72
2021/09/23 11:28:05;;;;;;;1.38;1.38;;;29.10;46.10;;;;;;5010217;28;20188;-75
2021/09/23 11:30:33;;;;;;;1.92;1.83;;;29.10;45.70;;;;;;5006387;28;20184;-73
2021/09/23 11:32:59;;;;;;;1.50;1.40;;;;;;;;;;5009940;28;20224;-72
2021/09/23 11:35:28;;;;;;;2.00;1.90;;;28.70;46.10;;;;;;5009043;28;20181;-74
2021/09/23 11:37:56;;;;;;;1.90;1.65;;;28.90;45.50;;;;;;5000686;28;20192;-75
2021/09/23 11:40:34;;;;;;;1.58;1.48;;;28.80;45.10;;;;;;5009261;28;20192;-76
2021/09/23 11:43:14;;;;;;;1.33;1.23;;;28.80;44.90;;;;;;5009850;28;20193;-76
2021/09/23 11:45:43;;;;;;;1.00;1.00;;;28.60;43.50;;;;;;5012005;28;20689;-78
2021/09/23 11:48:17;;;;;;;2.05;0.80;;;28.30;46.10;;;;;;5001607;28;20181;-74
2021/09/23 11:50:43;;;;;;;0.90;0.90;;;;;;;;;;5007158;28;20193;-75
2021/09/23 11:53:12;;;;;;;1.00;1.00;;;28.30;43.70;;;;;;5006155;28;20221;-76
2021/09/23 11:55:41;;;;;;;1.00;1.00;;;27.80;44.40;;;;;;5000095;28;20192;-75
2021/09/23 11:58:15;;;;;;;0.90;0.80;;;27.20;44.90;;;;;;4998998;28;20272;-74
2021/09/23 12:00:44;;;;;;;1.15;1.15;;;26.70;47.20;;;;;;5009761;28;20186;-76
2021/09/23 12:03:12;;;;;;;1.20;1.20;;;26.40;45.60;;;;;;5007611;28;20215;-75
2021/09/23 12:05:38;;;;;;;1.05;1.02;;;25.20;46.90;;;;;;5003335;28;20316;-75
2021/09/23 12:08:16;;;;;;;0.88;0.88;;;24.30;47.80;;;;;;5002877;28;20212;-76
2021/09/23 12:10:49;;;;;;;1.10;1.10;;;23.80;48.90;;;;;;5011484;28;20195;-75
2021/09/23 12:13:37;;;;;;;1.00;1.00;;;23.70;49.00;;;;;;5002585;28;20213;-76
2021/09/23 12:16:10;;;;;;;1.00;1.00;;;23.90;50.10;;;;;;5006670;28;20189;-76
2021/09/23 12:18:37;;;;;;;0.80;0.80;;;24.00;50.00;;;;;;5012536;28;20187;-75
2021/09/23 12:21:24;;;;;;;0.98;0.98;;;24.30;48.70;;;;;;5013145;28;20181;-75
2021/09/23 12:23:52;;;;;;;1.05;1.05;;;24.40;49.90;;;;;;5008620;28;20181;-75
2021/09/23 12:26:34;;;;;;;1.38;1.38;;;25.10;48.50;;;;;;5004884;28;20177;-75
2021/09/23 12:29:03;;;;;;;1.50;1.48;;;25.60;47.90;;;;;;5008615;28;20208;-75
2021/09/23 12:31:40;;;;;;;2.28;1.23;;;26.10;47.70;;;;;;5017251;28;20185;-74
2021/09/23 12:34:09;;;;;;;1.25;1.25;;;26.10;46.40;;;;;;5008677;28;20213;-75
2021/09/23 12:36:43;;;;;;;1.08;1.08;;;26.30;46.80;;;;;;5006109;28;20211;-75
2021/09/23 12:39:18;;;;;;;1.17;1.17;;;26.80;48.20;;;;;;5010569;28;20649;-74
2021/09/23 12:42:06;;;;;;;1.20;1.10;;;27.20;47.30;;;;;;5015894;28;20188;-74
2021/09/23 12:44:34;;;;;;;4.82;1.40;;;27.30;46.30;;;;;;5007591;28;20185;-75
2021/09/23 12:47:10;;;;;;;1.33;1.33;;;27.60;46.90;;;;;;5009748;28;20180;-75
2021/09/23 12:49:38;;;;;;;1.42;1.33;;;27.70;44.90;;;;;;5011602;28;20192;-74
2021/09/23 12:52:32;;;;;;;7.60;1.52;;;27.50;47.00;;;;;;5009978;28;20185;-74
2021/09/23 12:55:31;;;;;;;5.93;2.00;;;27.20;45.30;;;;;;5010175;28;20232;-74